Monterrey Airport, Mexico

3:03 AM EST on August 25, 2016 (GMT -0500)
Los Elizondo | | Change Station

Elev 1624 ft 25.79 °N, 100.31 °W | Updated 13 minutes ago

Clear
Clear
76.8 °F
Feels Like 78 °F
N
3.0
Wind Variable Wind from ESE
Gusts 6.0 mph

Today
High -- | Low -- °F
--% Chance of Precip.
Yesterday
High -- | Low -- °F
Precip. -- in
Pressure 30.03 in
Visibility 15.0 miles
Clouds Clear
Heat Index 78 °F
Dew Point 70 °F
Humidity 79%
Rainfall 0.00 in
Snow Depth Not available.
7:18 AM 8:06 PM
Waning Gibbous, 48% visible
METAR MMMY 250744Z 07004KT 15SM SKC 24/19 A3003
Pressure 30.03 in
Visibility 15.0 miles
Clouds Clear
Heat Index 78 °F
Dew Point 70 °F
Humidity 79%
Rainfall 0.00 in
Snow Depth Not available.
7:18 AM 8:06 PM
Waning Gibbous, 48% visible
METAR MMMY 250744Z 07004KT 15SM SKC 24/19 A3003

10-Day Weather Forecast

No radar image for this location.
×

Almanac

Astronomy

Aug. 25, 2016 Rise Set
Actual Time
Civil Twilight
Nautical Twilight
Astronomical Twilight
Moon
Length of Visible Light
Length of Day
Tomorrow will be .
, % of the Moon is Illuminated

Today's Extremes

Country Highs Country Lows

Community

WunderPhotos

Upload Photos

1,934,814 photos uploaded!

WunderBlog® & News

Nearby

Air Quality

  Air Quality AQ Index Pollutant
Not available.

Snow Depth

Station Depth Elevation

Earthquake Activity

City Distance Mag. Time & Date
Minimum magnitude displayed is 2.5.

Coastal Water Temperatures

Place Temperature

Stations

Nearby Weather Stations

Station Location Temp. Windchill Dew Point Humidity Wind Precip. Elev Updated Type